Time;durP1;ratioP1;P1;durP2;ratioP2;P2;SDS_P1;SDS_P2;PMS_P1;PMS_P2;Temp;Humidity;BMP_temperature;BMP_pressure;BME280_temperature;BME280_humidity;BME280_pressure;Samples;Min_cycle;Max_cycle;Signal;HPM_P1;HPM_P2
2023/04/09 00:01:21;;;;;;;8.10;4.90;;;6.70;99.90;;;;;;5067310;28;20025;-73
2023/04/09 00:03:47;;;;;;;9.63;5.77;;;6.70;99.90;;;;;;5067002;28;20063;-72
2023/04/09 00:06:13;;;;;;;12.30;5.43;;;6.60;99.90;;;;;;5068687;28;20032;-69
2023/04/09 00:08:38;;;;;;;10.80;5.17;;;6.60;99.90;;;;;;5070642;28;20032;-67
2023/04/09 00:11:04;;;;;;;7.33;5.63;;;6.70;99.90;;;;;;5070989;28;20047;-69
2023/04/09 00:13:30;;;;;;;10.23;5.65;;;6.60;99.90;;;;;;5070445;28;20032;-69
2023/04/09 00:15:55;;;;;;;10.13;5.97;;;6.60;99.90;;;;;;5070259;28;20364;-69
2023/04/09 00:18:21;;;;;;;16.60;5.60;;;6.50;99.90;;;;;;5070462;28;20029;-70
2023/04/09 00:20:46;;;;;;;9.03;5.63;;;6.50;99.90;;;;;;5070856;28;20024;-67
2023/04/09 00:23:12;;;;;;;10.47;5.80;;;6.50;99.90;;;;;;5071018;28;20036;-68
2023/04/09 00:25:38;;;;;;;10.33;6.20;;;6.50;99.90;;;;;;5070320;28;20488;-70
2023/04/09 00:28:03;;;;;;;9.57;6.27;;;6.30;99.90;;;;;;5070662;28;20059;-71
2023/04/09 00:30:29;;;;;;;7.73;5.07;;;6.40;99.90;;;;;;5069827;28;20040;-72
2023/04/09 00:32:55;;;;;;;10.63;5.93;;;6.30;99.90;;;;;;5069706;28;20086;-73
2023/04/09 00:35:21;;;;;;;8.00;5.30;;;6.30;99.90;;;;;;5069923;28;20032;-72
2023/04/09 00:37:46;;;;;;;8.63;5.10;;;6.30;99.90;;;;;;5070159;28;20041;-72
2023/04/09 00:40:13;;;;;;;8.00;5.07;;;6.30;99.90;;;;;;5069321;28;20413;-71
2023/04/09 00:42:38;;;;;;;10.70;5.47;;;6.20;99.90;;;;;;5070003;28;20151;-73
2023/04/09 00:45:05;;;;;;;10.17;5.43;;;6.20;99.90;;;;;;5068934;28;20546;-73
2023/04/09 00:47:31;;;;;;;;;;;6.10;99.90;;;;;;5070595;28;20543;-73
2023/04/09 00:49:57;;;;;;;8.77;5.45;;;6.10;99.90;;;;;;5070023;28;19955;-72
2023/04/09 00:52:24;;;;;;;7.63;5.55;;;6.10;99.90;;;;;;5070451;28;20123;-73
2023/04/09 00:54:50;;;;;;;10.15;5.75;;;6.20;99.90;;;;;;5070354;28;20028;-71
2023/04/09 00:57:16;;;;;;;8.63;5.97;;;6.10;99.90;;;;;;5069090;28;20025;-69
2023/04/09 00:59:42;;;;;;;;;;;6.10;99.90;;;;;;5070234;28;20051;-72
2023/04/09 01:02:08;;;;;;;10.70;6.40;;;6.00;99.90;;;;;;5069873;28;19908;-72
2023/04/09 01:04:34;;;;;;;10.60;5.77;;;6.00;99.90;;;;;;5069450;28;20031;-72
2023/04/09 01:07:08;;;;;;;11.75;5.65;;;6.00;99.90;;;;;;5069570;28;20021;-70
2023/04/09 01:09:42;;;;;;;8.50;5.63;;;5.90;99.90;;;;;;5069738;28;20813;-72
2023/04/09 01:12:41;;;;;;;10.60;6.47;;;5.80;99.90;;;;;;5069614;28;20025;-68
2023/04/09 01:15:10;;;;;;;9.32;6.20;;;5.90;99.90;;;;;;5062008;28;20052;-67
2023/04/09 01:18:00;;;;;;;10.13;6.07;;;5.80;99.90;;;;;;5068038;28;20044;-71
2023/04/09 01:20:38;;;;;;;10.88;5.72;;;5.80;99.90;;;;;;5069100;28;20539;-71
2023/04/09 01:23:09;;;;;;;9.43;5.82;;;5.70;99.90;;;;;;5068889;28;20051;-70
2023/04/09 01:25:56;;;;;;;14.65;6.60;;;5.60;99.90;;;;;;5069107;28;20039;-71
2023/04/09 01:28:30;;;;;;;11.47;6.07;;;5.60;99.90;;;;;;5069230;28;20029;-69
2023/04/09 01:31:12;;;;;;;9.32;5.55;;;5.60;99.90;;;;;;5068764;28;20085;-67
2023/04/09 01:33:40;;;;;;;11.48;6.38;;;5.50;99.90;;;;;;5067529;28;20400;-71
2023/04/09 01:36:07;;;;;;;11.70;6.20;;;5.50;99.90;;;;;;5069191;28;20029;-71
2023/04/09 01:38:35;;;;;;;11.25;6.30;;;5.50;99.90;;;;;;5067674;28;20070;-72
2023/04/09 01:41:02;;;;;;;10.77;6.63;;;5.60;99.90;;;;;;5069105;28;20119;-72
2023/04/09 01:43:29;;;;;;;11.50;6.57;;;5.50;99.90;;;;;;5069343;28;20102;-71
2023/04/09 01:45:55;;;;;;;11.52;6.90;;;5.50;99.90;;;;;;5068962;28;20033;-72
2023/04/09 01:48:22;;;;;;;10.07;6.55;;;5.50;99.90;;;;;;5069683;28;20127;-68
2023/04/09 01:50:49;;;;;;;10.45;6.78;;;5.40;99.90;;;;;;5065757;28;20480;-68
2023/04/09 01:53:15;;;;;;;15.07;6.32;;;5.50;99.90;;;;;;5068410;28;20060;-71
2023/04/09 01:55:40;;;;;;;11.00;6.03;;;5.40;99.90;;;;;;5068293;28;20087;-73
2023/04/09 01:58:06;;;;;;;9.90;5.93;;;5.40;99.90;;;;;;5067285;28;20298;-67
2023/04/09 02:00:39;;;;;;;10.33;6.23;;;5.40;99.90;;;;;;5068181;28;20044;-72
2023/04/09 02:03:15;;;;;;;9.43;5.70;;;5.40;99.90;;;;;;5067780;28;20037;-71
2023/04/09 02:05:47;;;;;;;8.73;5.63;;;5.30;99.90;;;;;;5068064;28;20051;-71
2023/04/09 02:08:18;;;;;;;9.35;6.20;;;5.30;99.90;;;;;;5067946;28;20029;-72
2023/04/09 02:10:52;;;;;;;12.38;6.65;;;5.20;99.90;;;;;;5068242;28;20139;-72
2023/04/09 02:13:18;;;;;;;11.93;6.50;;;5.20;99.90;;;;;;5068267;28;20028;-73
2023/04/09 02:15:45;;;;;;;9.35;5.95;;;5.20;99.90;;;;;;5068112;28;20044;-73
2023/04/09 02:18:22;;;;;;;8.13;5.90;;;5.10;99.90;;;;;;5068133;28;20123;-71
2023/04/09 02:20:47;;;;;;;9.88;6.28;;;4.90;99.90;;;;;;5067945;28;20029;-67
2023/04/09 02:23:15;;;;;;;11.07;6.83;;;4.90;99.90;;;;;;5068077;28;20036;-67
2023/04/09 02:25:42;;;;;;;13.52;6.95;;;5.00;99.90;;;;;;5068340;28;20021;-68
2023/04/09 02:28:08;;;;;;;13.98;7.25;;;5.00;99.90;;;;;;5068269;28;20060;-66
2023/04/09 02:30:34;;;;;;;10.67;6.20;;;4.90;99.90;;;;;;5067947;28;20056;-67
2023/04/09 02:32:59;;;;;;;10.00;6.87;;;5.00;99.90;;;;;;5067957;28;20290;-67
2023/04/09 02:35:25;;;;;;;10.63;6.17;;;5.00;99.90;;;;;;5068071;28;20025;-67
2023/04/09 02:37:51;;;;;;;16.53;6.80;;;5.00;99.90;;;;;;5068653;28;20101;-72
2023/04/09 02:40:16;;;;;;;12.17;5.90;;;4.80;99.90;;;;;;5065770;28;20101;-71
2023/04/09 02:42:42;;;;;;;10.93;5.90;;;4.80;99.90;;;;;;5065634;28;20047;-67
2023/04/09 02:45:08;;;;;;;15.03;7.30;;;4.80;99.90;;;;;;5066507;28;20067;-71
2023/04/09 02:47:34;;;;;;;9.50;6.45;;;4.80;99.90;;;;;;5066770;28;20670;-69
2023/04/09 02:50:00;;;;;;;16.33;7.03;;;4.70;99.90;;;;;;5066059;28;20039;-70
2023/04/09 02:52:25;;;;;;;9.67;6.50;;;4.70;99.90;;;;;;5065892;28;20035;-70
2023/04/09 02:54:51;;;;;;;13.00;7.97;;;4.60;99.90;;;;;;5066924;28;20502;-70
2023/04/09 02:57:17;;;;;;;11.18;7.30;;;4.70;99.90;;;;;;5066419;28;20044;-70
2023/04/09 02:59:44;;;;;;;14.73;6.40;;;4.60;99.90;;;;;;5066281;28;20039;-69
2023/04/09 03:02:10;;;;;;;11.25;7.22;;;4.60;99.90;;;;;;5066131;28;20278;-69
2023/04/09 03:04:35;;;;;;;11.00;6.47;;;4.50;99.90;;;;;;5066944;28;20042;-70
2023/04/09 03:07:01;;;;;;;12.37;7.63;;;4.50;99.90;;;;;;5066559;28;20036;-69
2023/04/09 03:09:28;;;;;;;10.02;6.78;;;4.60;99.90;;;;;;5066238;28;20224;-69
2023/04/09 03:11:55;;;;;;;11.05;6.68;;;4.50;99.90;;;;;;5066332;28;20047;-69
2023/04/09 03:14:20;;;;;;;14.13;7.53;;;4.50;99.90;;;;;;5065927;28;20044;-70
2023/04/09 03:16:46;;;;;;;9.93;6.87;;;4.50;99.90;;;;;;5066717;28;20035;-70
2023/04/09 03:19:11;;;;;;;13.97;8.60;;;4.40;99.90;;;;;;5066471;28;20391;-71
2023/04/09 03:21:37;;;;;;;12.87;7.43;;;4.40;99.90;;;;;;5066459;28;20035;-71
2023/04/09 03:24:03;;;;;;;11.87;8.10;;;4.30;99.90;;;;;;5064023;28;20083;-69
2023/04/09 03:26:34;;;;;;;13.53;7.37;;;4.30;99.90;;;;;;5065929;28;20028;-67
2023/04/09 03:29:03;;;;;;;11.15;7.38;;;4.40;99.90;;;;;;5065364;28;20453;-68
2023/04/09 03:31:29;;;;;;;10.77;6.95;;;4.30;99.90;;;;;;5065242;28;20025;-67
2023/04/09 03:33:55;;;;;;;15.55;8.15;;;4.30;99.90;;;;;;5066063;28;20029;-69
2023/04/09 03:36:21;;;;;;;15.10;7.80;;;4.20;99.90;;;;;;5065561;28;20037;-69
2023/04/09 03:38:46;;;;;;;11.43;7.20;;;4.20;99.90;;;;;;5066382;28;20044;-72
2023/04/09 03:41:12;;;;;;;12.93;8.65;;;4.10;99.90;;;;;;5065246;28;20325;-69
2023/04/09 03:43:38;;;;;;;15.50;8.10;;;4.10;99.90;;;;;;5066257;28;20080;-70
2023/04/09 03:46:13;;;;;;;12.57;8.37;;;4.10;99.90;;;;;;5065972;28;20043;-67
2023/04/09 03:48:38;;;;;;;13.38;7.88;;;4.10;99.90;;;;;;5066368;28;20025;-72
2023/04/09 03:51:04;;;;;;;14.13;8.23;;;4.10;99.90;;;;;;5065603;28;20134;-69
2023/04/09 03:53:30;;;;;;;14.30;7.38;;;4.00;99.90;;;;;;5065871;28;20028;-72
2023/04/09 03:55:55;;;;;;;15.03;8.10;;;4.10;99.90;;;;;;5066167;28;20059;-71
2023/04/09 03:58:21;;;;;;;13.87;7.73;;;4.00;99.90;;;;;;5065664;28;20044;-72
2023/04/09 04:00:47;;;;;;;12.87;7.80;;;4.00;99.90;;;;;;5065716;28;20032;-70
2023/04/09 04:03:14;;;;;;;14.32;8.07;;;4.00;99.90;;;;;;5065862;28;20024;-72
2023/04/09 04:05:40;;;;;;;16.00;8.52;;;4.00;99.90;;;;;;5065746;28;20158;-70
2023/04/09 04:08:06;;;;;;;13.75;8.25;;;4.00;99.90;;;;;;5065542;28;20552;-72
2023/04/09 04:10:33;;;;;;;11.43;7.37;;;4.00;99.90;;;;;;5065653;28;20035;-72
2023/04/09 04:12:59;;;;;;;15.35;8.43;;;3.90;99.90;;;;;;5062117;28;20119;-73
2023/04/09 04:15:24;;;;;;;16.10;9.07;;;3.90;99.90;;;;;;5064053;28;20128;-72
2023/04/09 04:17:50;;;;;;;19.92;9.40;;;3.90;99.90;;;;;;5065504;28;20317;-72
2023/04/09 04:20:16;;;;;;;18.40;9.83;;;3.90;99.90;;;;;;5065556;28;20286;-72
2023/04/09 04:22:41;;;;;;;14.37;8.03;;;3.90;99.90;;;;;;5065853;28;20032;-71
2023/04/09 04:25:07;;;;;;;20.43;9.63;;;3.80;99.90;;;;;;5065681;28;20407;-71
2023/04/09 04:27:33;;;;;;;14.85;8.55;;;3.80;99.90;;;;;;5065590;28;20028;-72
2023/04/09 04:30:00;;;;;;;13.83;9.57;;;3.80;99.90;;;;;;5066063;28;20519;-67
2023/04/09 04:32:26;;;;;;;15.23;9.25;;;3.70;99.90;;;;;;5064926;28;20029;-73
2023/04/09 04:34:52;;;;;;;14.55;8.55;;;3.80;99.90;;;;;;5063974;28;20032;-71
2023/04/09 04:37:18;;;;;;;14.02;9.15;;;3.80;99.90;;;;;;5064066;28;20037;-67
2023/04/09 04:39:44;;;;;;;13.63;8.63;;;3.80;99.90;;;;;;5065711;28;20496;-71
2023/04/09 04:42:10;;;;;;;14.30;8.82;;;3.90;99.90;;;;;;5066861;28;20040;-68
2023/04/09 04:44:35;;;;;;;14.13;8.73;;;3.80;99.90;;;;;;5065777;28;20048;-68
2023/04/09 04:47:01;;;;;;;15.57;9.00;;;3.80;99.90;;;;;;5067422;28;20036;-70
2023/04/09 04:49:26;;;;;;;14.47;9.30;;;3.70;99.90;;;;;;5065224;28;20052;-72
2023/04/09 04:51:52;;;;;;;14.85;8.73;;;3.70;99.90;;;;;;5067954;28;20028;-67
2023/04/09 04:54:17;;;;;;;13.03;8.33;;;3.70;99.90;;;;;;5069774;28;20051;-68
2023/04/09 04:56:43;;;;;;;15.73;8.67;;;3.80;99.90;;;;;;5068944;28;20032;-72
2023/04/09 04:59:09;;;;;;;14.17;8.83;;;3.80;99.90;;;;;;5068650;28;20028;-72
2023/04/09 05:01:34;;;;;;;16.63;9.07;;;3.70;99.90;;;;;;5068562;28;20959;-72
2023/04/09 05:04:02;;;;;;;18.43;9.00;;;3.70;99.90;;;;;;5069487;28;20032;-71
2023/04/09 05:06:28;;;;;;;15.45;9.18;;;3.70;99.90;;;;;;5070268;28;20020;-71
2023/04/09 05:08:56;;;;;;;;;;;3.70;99.90;;;;;;5070569;28;20016;-72
2023/04/09 05:11:23;;;;;;;14.63;8.50;;;3.60;99.90;;;;;;5067995;28;19909;-71
2023/04/09 05:13:49;;;;;;;16.27;8.95;;;3.60;99.90;;;;;;5070006;28;20035;-72
2023/04/09 05:16:17;;;;;;;17.87;9.63;;;3.60;99.90;;;;;;5068748;28;20037;-71
2023/04/09 05:18:42;;;;;;;15.68;9.43;;;3.60;99.90;;;;;;5068690;28;20314;-72
2023/04/09 05:21:08;;;;;;;22.33;8.77;;;3.50;99.90;;;;;;5068181;28;20495;-73
2023/04/09 05:23:33;;;;;;;18.07;10.00;;;3.50;99.90;;;;;;5070050;28;20024;-72
2023/04/09 05:25:59;;;;;;;13.77;9.23;;;3.60;99.90;;;;;;5067583;28;20020;-70
2023/04/09 05:28:25;;;;;;;16.57;9.97;;;3.60;99.90;;;;;;5069158;28;20033;-72
2023/04/09 05:30:50;;;;;;;17.33;9.90;;;3.60;99.90;;;;;;5068265;28;20559;-72
2023/04/09 05:33:16;;;;;;;14.03;9.67;;;3.60;99.90;;;;;;5069805;28;20086;-72
2023/04/09 05:35:41;;;;;;;16.53;10.30;;;3.60;99.90;;;;;;5069386;28;20111;-69
2023/04/09 05:38:07;;;;;;;14.50;8.70;;;3.60;99.90;;;;;;5070375;28;20042;-70
2023/04/09 05:40:34;;;;;;;15.80;9.53;;;3.70;99.90;;;;;;5068513;28;20036;-72
2023/04/09 05:42:59;;;;;;;16.48;9.50;;;3.90;99.90;;;;;;5101820;27;20298;-69
2023/04/09 05:45:27;;;;;;;18.25;10.07;;;3.90;99.90;;;;;;5069283;28;20063;-71
2023/04/09 05:47:53;;;;;;;15.57;9.60;;;3.90;99.90;;;;;;5066939;28;20573;-72
2023/04/09 05:50:19;;;;;;;17.30;9.98;;;4.00;99.90;;;;;;5068227;28;20480;-68
2023/04/09 05:52:45;;;;;;;14.38;8.68;;;4.50;99.90;;;;;;5068764;28;20028;-68
2023/04/09 05:55:11;;;;;;;18.38;10.38;;;5.40;99.90;;;;;;5069050;28;20024;-69
2023/04/09 05:57:36;;;;;;;14.90;9.07;;;6.30;99.90;;;;;;5068320;28;20051;-67
2023/04/09 06:00:02;;;;;;;16.83;10.07;;;6.50;99.90;;;;;;5067593;28;20099;-70
2023/04/09 06:02:28;;;;;;;16.60;9.38;;;6.50;99.90;;;;;;5068864;28;20383;-71
2023/04/09 06:04:54;;;;;;;13.23;7.87;;;6.50;99.90;;;;;;5067295;28;20028;-71
2023/04/09 06:07:20;;;;;;;14.55;9.13;;;6.70;99.90;;;;;;5067896;28;20028;-70
2023/04/09 06:09:45;;;;;;;13.10;8.45;;;7.60;99.90;;;;;;5069115;28;20028;-71
2023/04/09 06:12:12;;;;;;;13.10;8.90;;;8.00;99.90;;;;;;5068959;28;20467;-72
2023/04/09 06:14:38;;;;;;;15.10;9.10;;;8.60;99.90;;;;;;5068803;28;20047;-78
2023/04/09 06:17:03;;;;;;;15.20;8.30;;;8.90;99.90;;;;;;5069110;28;20048;-73
2023/04/09 06:19:29;;;;;;;18.27;10.13;;;8.40;99.90;;;;;;5066543;28;20025;-77
2023/04/09 06:21:54;;;;;;;15.87;9.07;;;8.60;99.90;;;;;;5065107;28;20028;-78
2023/04/09 06:24:20;;;;;;;13.20;8.63;;;8.60;99.90;;;;;;5068005;28;20089;-77
2023/04/09 06:26:46;;;;;;;15.27;8.97;;;8.90;99.90;;;;;;5063107;28;20024;-73
2023/04/09 06:29:11;;;;;;;15.63;9.73;;;8.80;99.90;;;;;;5068868;28;20046;-75
2023/04/09 06:31:37;;;;;;;14.07;8.83;;;9.20;99.90;;;;;;5067293;28;20021;-76
2023/04/09 06:34:02;;;;;;;14.60;8.67;;;9.60;99.90;;;;;;5099625;27;20517;-75
2023/04/09 06:36:29;;;;;;;15.83;9.10;;;10.70;99.40;;;;;;5065440;28;20117;-73
2023/04/09 06:38:55;;;;;;;18.17;8.70;;;12.00;97.00;;;;;;5066801;28;20218;-74
2023/04/09 06:41:24;;;;;;;12.57;8.52;;;11.80;95.80;;;;;;5066142;28;20048;-75
2023/04/09 06:43:49;;;;;;;13.32;8.77;;;11.90;95.90;;;;;;5065434;28;20103;-72
2023/04/09 06:46:18;;;;;;;12.63;8.27;;;11.80;95.30;;;;;;5067483;28;20033;-68
2023/04/09 06:48:45;;;;;;;12.23;8.73;;;12.00;95.00;;;;;;5063587;28;20301;-71
2023/04/09 06:51:11;;;;;;;11.88;8.82;;;12.40;94.00;;;;;;5065232;28;20032;-69
2023/04/09 06:53:38;;;;;;;15.02;9.15;;;12.10;94.40;;;;;;5065898;28;20025;-70
2023/04/09 06:56:04;;;;;;;14.63;8.82;;;13.00;93.20;;;;;;5067136;28;20115;-69
2023/04/09 06:58:29;;;;;;;12.70;8.70;;;12.90;92.40;;;;;;5065940;28;20135;-72
2023/04/09 07:00:55;;;;;;;14.50;8.47;;;12.20;93.10;;;;;;5064917;28;20024;-71
2023/04/09 07:03:21;;;;;;;13.57;8.33;;;12.20;93.10;;;;;;5067518;28;20068;-69
2023/04/09 07:05:47;;;;;;;15.10;9.07;;;12.20;92.70;;;;;;5066802;28;20099;-69
2023/04/09 07:08:13;;;;;;;13.48;9.23;;;11.50;94.80;;;;;;5065183;28;20365;-72
2023/04/09 07:10:38;;;;;;;14.83;8.73;;;12.30;94.50;;;;;;5066086;28;20115;-71
2023/04/09 07:13:04;;;;;;;13.17;8.63;;;13.40;93.40;;;;;;5066984;28;20033;-72
2023/04/09 07:15:29;;;;;;;13.73;9.47;;;15.60;91.50;;;;;;5066519;28;20231;-72
2023/04/09 07:17:56;;;;;;;13.83;9.40;;;16.90;85.00;;;;;;5068638;28;20534;-68
2023/04/09 07:20:22;;;;;;;;;;;17.10;83.90;;;;;;5067328;28;20029;-70
2023/04/09 07:22:47;;;;;;;13.68;9.32;;;16.00;81.50;;;;;;5065773;28;20558;-70
2023/04/09 07:25:14;;;;;;;14.33;9.10;;;14.60;87.30;;;;;;5067474;28;20095;-69
2023/04/09 07:27:39;;;;;;;;;;;13.70;90.50;;;;;;5067849;28;20021;-69
2023/04/09 07:30:06;;;;;;;12.73;8.73;;;13.10;92.10;;;;;;5067013;28;19982;-68
2023/04/09 07:32:31;;;;;;;15.48;9.55;;;12.90;93.20;;;;;;5065860;28;20058;-72
2023/04/09 07:34:58;;;;;;;13.53;9.10;;;14.90;91.10;;;;;;5068466;28;20029;-69
2023/04/09 07:37:24;;;;;;;;;;;16.40;88.30;;;;;;5066467;28;20028;-70
2023/04/09 07:39:53;;;;;;;13.07;8.85;;;16.90;84.00;;;;;;5066458;28;19916;-72
2023/04/09 07:42:18;;;;;;;12.02;8.27;;;16.40;84.40;;;;;;5066414;28;20036;-72
2023/04/09 07:44:44;;;;;;;13.17;8.87;;;16.40;83.20;;;;;;5064062;28;20134;-71
2023/04/09 07:47:11;;;;;;;12.13;8.37;;;17.00;84.60;;;;;;5066130;28;20031;-71
2023/04/09 07:49:37;;;;;;;13.30;7.75;;;16.40;83.10;;;;;;5066881;28;20488;-72
2023/04/09 07:52:04;;;;;;;11.98;8.27;;;17.20;84.90;;;;;;5066877;28;20032;-72
2023/04/09 07:54:32;;;;;;;13.00;8.75;;;17.00;81.40;;;;;;5067551;28;20082;-72
2023/04/09 07:56:58;;;;;;;11.73;8.65;;;16.50;81.50;;;;;;5067720;28;20049;-72
2023/04/09 07:59:24;;;;;;;14.33;7.93;;;16.50;83.50;;;;;;5065332;28;20016;-74
2023/04/09 08:01:50;;;;;;;11.98;8.43;;;16.50;84.80;;;;;;5066157;28;20048;-75
2023/04/09 08:04:16;;;;;;;12.50;9.00;;;16.00;85.90;;;;;;5066727;28;20067;-74
2023/04/09 08:06:45;;;;;;;13.73;8.63;;;16.00;85.50;;;;;;5064785;28;20067;-72
2023/04/09 08:09:11;;;;;;;14.90;9.35;;;16.20;85.70;;;;;;5065506;28;20035;-73
2023/04/09 08:11:36;;;;;;;11.93;8.27;;;16.50;85.30;;;;;;5064116;28;20037;-72
2023/04/09 08:14:03;;;;;;;12.53;8.57;;;16.80;84.80;;;;;;5066114;28;20461;-72
2023/04/09 08:16:29;;;;;;;12.00;8.40;;;17.60;80.50;;;;;;5095520;28;20040;-72
2023/04/09 08:18:55;;;;;;;11.73;8.40;;;17.10;83.10;;;;;;5064611;28;20044;-72
2023/04/09 08:21:23;;;;;;;11.95;8.50;;;17.50;82.60;;;;;;5065263;28;20679;-72
2023/04/09 08:23:48;;;;;;;13.50;8.65;;;17.80;81.20;;;;;;5064441;28;20103;-73
2023/04/09 08:26:14;;;;;;;12.27;8.93;;;17.70;80.60;;;;;;5064975;28;20111;-73
2023/04/09 08:28:40;;;;;;;12.77;8.03;;;17.50;79.80;;;;;;5069280;28;20488;-72
2023/04/09 08:31:07;;;;;;;;;;;18.10;79.80;;;;;;5068835;28;20107;-74
2023/04/09 08:33:33;;;;;;;12.68;9.32;;;18.80;76.70;;;;;;5070713;28;19908;-73
2023/04/09 08:35:59;;;;;;;14.83;9.67;;;19.50;76.90;;;;;;5070343;28;20047;-74
2023/04/09 08:38:24;;;;;;;12.50;9.83;;;19.50;75.20;;;;;;5069206;28;20044;-74
2023/04/09 08:40:50;;;;;;;11.87;8.97;;;18.90;73.40;;;;;;5070648;28;20464;-74
2023/04/09 08:43:19;;;;;;;11.73;8.83;;;19.70;73.00;;;;;;5070426;28;20286;-71
2023/04/09 08:45:45;;;;;;;13.65;8.90;;;21.60;70.20;;;;;;5068506;28;20052;-72
2023/04/09 08:48:12;;;;;;;14.00;8.40;;;22.20;66.90;;;;;;5069118;28;20032;-71
2023/04/09 08:50:38;;;;;;;12.20;8.27;;;21.90;67.50;;;;;;5069242;28;20047;-72
2023/04/09 08:53:05;;;;;;;15.13;8.75;;;21.30;67.10;;;;;;5071036;28;20103;-70
2023/04/09 08:55:33;;;;;;;12.65;8.20;;;21.60;66.20;;;;;;5070386;28;20082;-71
2023/04/09 08:57:59;;;;;;;12.85;8.13;;;22.40;67.00;;;;;;5068855;28;20384;-72
2023/04/09 09:00:26;;;;;;;13.30;7.60;;;23.70;63.40;;;;;;5070574;28;20089;-71
2023/04/09 09:03:05;;;;;;;9.38;7.30;;;23.10;64.50;;;;;;5070743;28;20766;-71
2023/04/09 09:05:36;;;;;;;10.85;8.52;;;22.90;64.50;;;;;;5069651;28;20503;-72
2023/04/09 09:08:02;;;;;;;9.23;7.63;;;22.50;62.60;;;;;;5066833;28;20095;-71
2023/04/09 09:10:43;;;;;;;95.13;26.15;;;22.30;61.80;;;;;;5068967;28;20036;-77
2023/04/09 09:13:15;;;;;;;181.60;39.70;;;24.20;64.70;;;;;;5067934;28;20129;-76
2023/04/09 09:15:41;;;;;;;21.20;10.43;;;24.70;63.90;;;;;;5068485;28;20105;-75
2023/04/09 09:18:06;;;;;;;72.32;27.05;;;25.60;61.70;;;;;;5068159;28;20068;-76
2023/04/09 09:20:32;;;;;;;37.40;11.80;;;26.10;61.30;;;;;;5068301;28;20029;-73
2023/04/09 09:22:58;;;;;;;54.42;16.60;;;26.50;56.80;;;;;;5070054;28;20037;-80
2023/04/09 09:25:24;;;;;;;17.60;9.63;;;26.00;59.10;;;;;;5067918;28;20036;-80
2023/04/09 09:27:51;;;;;;;20.15;8.93;;;26.00;56.50;;;;;;5071179;28;20017;-81
2023/04/09 09:30:22;;;;;;;16.80;10.10;;;26.00;59.10;;;;;;5069950;28;20496;-80
2023/04/09 09:32:51;;;;;;;18.00;10.30;;;27.10;56.80;;;;;;5075771;28;20029;-82
2023/04/09 09:35:17;;;;;;;11.85;7.72;;;27.40;55.10;;;;;;5070113;28;20077;-80
2023/04/09 09:37:43;;;;;;;18.00;9.77;;;26.90;54.70;;;;;;5071209;28;20543;-80
2023/04/09 09:40:09;;;;;;;8.88;7.82;;;27.10;55.10;;;;;;5071032;28;20036;-75
2023/04/09 09:42:34;;;;;;;;;;;26.60;53.60;;;;;;5066767;28;20377;-79
2023/04/09 09:45:02;;;;;;;10.00;7.80;;;26.50;54.90;;;;;;5067388;28;19914;-74
2023/04/09 09:47:30;;;;;;;8.88;7.88;;;27.10;55.20;;;;;;5066706;28;20429;-75
2023/04/09 09:49:55;;;;;;;11.80;7.40;;;27.90;50.70;;;;;;5070400;28;20032;-76
2023/04/09 09:52:25;;;;;;;14.30;7.95;;;27.30;55.10;;;;;;5068504;28;20613;-75
2023/04/09 09:54:54;;;;;;;8.60;7.38;;;27.60;54.40;;;;;;5069884;28;20040;-76
2023/04/09 09:57:23;;;;;;;9.88;7.20;;;27.70;52.10;;;;;;5069154;28;20028;-81
2023/04/09 10:00:02;;;;;;;13.93;8.98;;;28.70;52.80;;;;;;5067926;28;20026;-78
2023/04/09 10:02:33;;;;;;;13.40;9.30;;;28.40;52.70;;;;;;5067579;28;20827;-77
2023/04/09 10:05:00;;;;;;;11.18;8.30;;;27.50;53.70;;;;;;5071384;28;20028;-76
2023/04/09 10:07:26;;;;;;;11.75;8.38;;;28.80;52.00;;;;;;5066551;28;20098;-77
2023/04/09 10:09:54;;;;;;;12.77;8.32;;;28.70;51.30;;;;;;5069723;28;20067;-72
2023/04/09 10:12:22;;;;;;;10.32;7.07;;;28.70;51.80;;;;;;5068279;28;20025;-77
2023/04/09 10:14:50;;;;;;;9.52;8.18;;;27.00;53.20;;;;;;5068807;28;20116;-80
2023/04/09 10:17:16;;;;;;;14.60;9.38;;;28.20;51.90;;;;;;5069730;28;20047;-73
2023/04/09 10:19:55;;;;;;;17.92;10.45;;;27.50;52.70;;;;;;5065082;28;21155;-77
2023/04/09 10:22:24;;;;;;;11.00;7.63;;;27.70;52.00;;;;;;5061323;28;20087;-78
2023/04/09 10:24:51;;;;;;;12.32;6.45;;;27.50;53.50;;;;;;5064840;28;20035;-83
2023/04/09 10:27:17;;;;;;;7.97;6.93;;;27.60;53.30;;;;;;5063055;28;20120;-79
2023/04/09 10:29:50;;;;;;;9.93;7.05;;;27.50;51.10;;;;;;5068130;28;20107;-77
2023/04/09 10:32:22;;;;;;;10.93;6.80;;;26.80;51.40;;;;;;5066389;28;20029;-76
2023/04/09 10:34:49;;;;;;;21.52;7.38;;;27.20;51.20;;;;;;5074101;28;20024;-76
2023/04/09 10:37:24;;;;;;;7.93;6.18;;;26.90;51.00;;;;;;5069576;28;20567;-79
2023/04/09 10:39:51;;;;;;;7.32;6.32;;;26.70;52.10;;;;;;5065103;28;20037;-78
2023/04/09 10:42:48;;;;;;;7.28;6.57;;;27.40;52.00;;;;;;5062554;28;20039;-79
2023/04/09 10:45:15;;;;;;;8.30;7.38;;;27.10;51.00;;;;;;5060632;28;20063;-77
2023/04/09 10:47:42;;;;;;;8.65;6.35;;;24.90;50.60;;;;;;5066982;28;20039;-82
2023/04/09 10:50:26;;;;;;;7.53;5.75;;;25.80;52.20;;;;;;5066013;28;20478;-81
2023/04/09 10:52:55;;;;;;;5.35;4.85;;;26.20;55.20;;;;;;5060737;28;20028;-75
2023/04/09 10:55:40;;;;;;;9.07;5.55;;;26.30;52.30;;;;;;5062768;28;20504;-75
2023/04/09 10:58:10;;;;;;;9.52;6.57;;;26.20;53.60;;;;;;5061837;28;20193;-74
2023/04/09 11:00:37;;;;;;;6.80;5.90;;;25.40;52.20;;;;;;5058848;28;20506;-75
2023/04/09 11:03:20;;;;;;;7.47;6.40;;;23.50;55.50;;;;;;5063647;28;20028;-74
2023/04/09 11:05:50;;;;;;;14.02;5.50;;;21.50;55.80;;;;;;5063251;28;20048;-75
2023/04/09 11:08:16;;;;;;;6.68;5.38;;;21.40;57.10;;;;;;5063813;28;20044;-74
2023/04/09 11:10:46;;;;;;;7.97;5.95;;;21.20;61.70;;;;;;5064491;28;20093;-74
2023/04/09 11:13:14;;;;;;;6.68;5.32;;;20.80;59.70;;;;;;5062047;28;20101;-73
2023/04/09 11:15:40;;;;;;;8.80;5.80;;;20.30;60.10;;;;;;5063015;28;20020;-70
2023/04/09 11:18:08;;;;;;;8.80;5.18;;;20.40;60.10;;;;;;5061440;28;20114;-73
2023/04/09 11:20:35;;;;;;;7.80;5.57;;;20.70;60.10;;;;;;5061166;28;20071;-72
2023/04/09 11:23:01;;;;;;;7.45;5.18;;;20.90;60.00;;;;;;5067031;28;20109;-73
2023/04/09 11:25:32;;;;;;;6.25;4.70;;;20.90;57.10;;;;;;5067714;28;20082;-75
2023/04/09 11:27:58;;;;;;;7.82;5.28;;;20.70;56.10;;;;;;5070961;28;20446;-71
2023/04/09 11:30:25;;;;;;;;;;;20.40;56.90;;;;;;5067176;28;20123;-74
2023/04/09 11:32:50;;;;;;;5.57;4.85;;;19.80;57.20;;;;;;5076032;28;19912;-72
2023/04/09 11:35:18;;;;;;;6.43;4.95;;;20.50;59.70;;;;;;5064785;28;20091;-74
2023/04/09 11:37:45;;;;;;;7.22;4.90;;;20.40;60.40;;;;;;5069310;28;20484;-74
2023/04/09 11:40:15;;;;;;;7.47;5.00;;;20.30;58.90;;;;;;5067531;28;20024;-73
2023/04/09 11:42:42;;;;;;;8.07;4.97;;;19.70;58.90;;;;;;5072352;28;20027;-73
2023/04/09 11:45:09;;;;;;;9.60;7.72;;;20.30;63.00;;;;;;5072164;28;20487;-77
2023/04/09 11:47:35;;;;;;;5.38;4.32;;;20.60;59.40;;;;;;5069161;28;20064;-76
2023/04/09 11:50:01;;;;;;;5.03;4.25;;;20.40;58.80;;;;;;5066234;28;20090;-77
2023/04/09 11:52:29;;;;;;;6.65;4.25;;;20.80;58.20;;;;;;5070721;28;20048;-75
2023/04/09 11:55:00;;;;;;;5.68;4.15;;;21.10;61.20;;;;;;5067263;28;20017;-75
2023/04/09 11:57:45;;;;;;;5.72;4.72;;;20.80;59.40;;;;;;5065426;28;20435;-74
2023/04/09 12:00:15;;;;;;;4.25;3.28;;;20.30;58.90;;;;;;5073169;28;20365;-75
2023/04/09 12:02:46;;;;;;;5.25;3.47;;;20.10;57.30;;;;;;5074932;28;20024;-76
2023/04/09 12:05:23;;;;;;;3.95;3.38;;;20.10;56.80;;;;;;5074914;28;20028;-76
2023/04/09 12:07:49;;;;;;;;;;;20.30;60.40;;;;;;5067293;28;20078;-74
2023/04/09 12:10:14;;;;;;;5.32;3.45;;;19.20;58.00;;;;;;5072655;28;20042;-74
2023/04/09 12:12:46;;;;;;;3.87;3.00;;;19.80;58.70;;;;;;5071571;28;20032;-75
2023/04/09 12:15:19;;;;;;;4.00;3.40;;;19.50;60.20;;;;;;5070958;28;20522;-77
2023/04/09 12:17:56;;;;;;;5.32;2.92;;;19.30;58.00;;;;;;5071355;28;20396;-77
2023/04/09 12:20:28;;;;;;;4.07;3.67;;;19.70;59.50;;;;;;5059775;28;20043;-73
2023/04/09 12:22:54;;;;;;;5.38;3.25;;;19.30;61.30;;;;;;5074380;28;20278;-79
2023/04/09 12:25:20;;;;;;;7.20;3.17;;;19.80;62.90;;;;;;5071360;28;20039;-74
2023/04/09 12:27:46;;;;;;;4.53;3.47;;;20.00;62.00;;;;;;5070611;28;20040;-73
2023/04/09 12:30:12;;;;;;;5.00;3.40;;;19.80;62.50;;;;;;5071043;28;20653;-73
2023/04/09 12:32:37;;;;;;;4.93;3.63;;;20.20;66.50;;;;;;5073080;28;20032;-76
2023/04/09 12:35:03;;;;;;;5.68;3.92;;;19.60;59.10;;;;;;5073415;28;20059;-74
2023/04/09 12:37:29;;;;;;;13.40;3.58;;;19.80;62.40;;;;;;5071484;28;20487;-78
2023/04/09 12:39:55;;;;;;;8.77;4.03;;;20.00;64.00;;;;;;5076130;28;20040;-77
2023/04/09 12:42:21;;;;;;;3.72;3.13;;;20.20;60.40;;;;;;5067053;28;20028;-73
2023/04/09 12:44:46;;;;;;;6.07;3.53;;;19.90;63.00;;;;;;5062563;28;20040;-73
2023/04/09 12:47:12;;;;;;;15.90;3.47;;;20.00;60.60;;;;;;5060118;28;20115;-71
2023/04/09 12:49:38;;;;;;;5.23;2.70;;;19.60;60.50;;;;;;5059927;28;20071;-76